createdAt,value
2024-04-08T00:00:53.165Z,78.33
2024-04-08T00:03:40.822Z,78.47
2024-04-08T00:06:08.545Z,78.74
2024-04-08T00:08:36.235Z,78.80
2024-04-08T00:11:08.549Z,78.89
2024-04-08T00:13:39.813Z,78.98
2024-04-08T00:16:07.801Z,79.02
2024-04-08T00:18:35.532Z,79.04
2024-04-08T00:21:04.762Z,79.20
2024-04-08T00:23:33.476Z,79.31
2024-04-08T00:26:05.108Z,79.42
2024-04-08T00:28:38.556Z,79.48
2024-04-08T00:31:08.091Z,79.50
2024-04-08T00:33:36.042Z,79.47
2024-04-08T00:36:05.158Z,79.61
2024-04-08T00:38:33.122Z,79.61
2024-04-08T00:41:03.869Z,79.70
2024-04-08T00:43:31.742Z,79.71
2024-04-08T00:46:00.268Z,79.74
2024-04-08T00:48:28.886Z,79.75
2024-04-08T00:50:56.915Z,79.78
2024-04-08T00:53:24.819Z,80.00
2024-04-08T00:55:53.849Z,80.03
2024-04-08T00:58:22.102Z,80.08
2024-04-08T01:00:51.151Z,80.20
2024-04-08T01:03:19.989Z,80.20
2024-04-08T01:05:50.735Z,80.38
2024-04-08T01:08:18.836Z,80.45
2024-04-08T01:10:46.912Z,80.50
2024-04-08T01:13:14.679Z,80.61
2024-04-08T01:15:44.758Z,80.70
2024-04-08T01:18:14.712Z,80.64
2024-04-08T01:20:44.279Z,80.75
2024-04-08T01:23:15.654Z,80.83
2024-04-08T01:25:43.982Z,80.92
2024-04-08T01:28:11.788Z,80.90
2024-04-08T01:30:40.363Z,80.95
2024-04-08T01:33:08.267Z,81.02
2024-04-08T01:35:35.925Z,81.08
2024-04-08T01:38:03.666Z,81.09
2024-04-08T01:40:31.386Z,81.18
2024-04-08T01:42:59.020Z,81.15
2024-04-08T01:45:26.761Z,81.08
2024-04-08T01:47:54.590Z,81.17
2024-04-08T01:50:22.384Z,81.22
2024-04-08T01:52:50.036Z,81.31
2024-04-08T01:55:17.653Z,81.27
2024-04-08T01:57:45.343Z,81.31
2024-04-08T02:00:13.166Z,81.42
2024-04-08T02:02:41.345Z,81.41
2024-04-08T02:05:09.030Z,81.40
2024-04-08T02:07:36.721Z,81.34
2024-04-08T02:10:04.669Z,81.28
2024-04-08T02:12:32.699Z,81.33
2024-04-08T02:15:00.501Z,81.34
2024-04-08T02:17:28.419Z,81.52
2024-04-08T02:19:57.491Z,81.46
2024-04-08T02:22:25.103Z,81.55
2024-04-08T02:24:52.896Z,81.68
2024-04-08T02:27:20.570Z,81.56
2024-04-08T02:29:48.233Z,81.61
2024-04-08T02:32:16.018Z,81.71
2024-04-08T02:34:43.768Z,81.79
2024-04-08T02:37:11.504Z,81.83
2024-04-08T02:39:39.214Z,82.08
2024-04-08T02:42:07.404Z,82.42
2024-04-08T02:44:35.142Z,82.91
2024-04-08T02:47:03.219Z,83.32
2024-04-08T02:49:32.819Z,83.68
2024-04-08T02:52:00.609Z,83.91
2024-04-08T02:54:28.416Z,84.00
2024-04-08T02:56:56.203Z,84.54
2024-04-08T02:59:24.728Z,84.81
2024-04-08T03:01:52.452Z,84.96
2024-04-08T03:04:20.264Z,85.38
2024-04-08T03:06:47.989Z,85.45
2024-04-08T03:09:15.763Z,85.67
2024-04-08T03:11:43.506Z,85.70
2024-04-08T03:14:12.031Z,86.15
2024-04-08T03:16:40.194Z,86.08
2024-04-08T03:19:07.975Z,86.27
2024-04-08T03:21:35.758Z,86.60
2024-04-08T03:24:03.557Z,86.58
2024-04-08T03:26:31.410Z,86.82
2024-04-08T03:28:59.180Z,86.75
2024-04-08T03:31:26.990Z,86.85
2024-04-08T03:33:55.260Z,86.78
2024-04-08T03:36:22.976Z,86.74
2024-04-08T03:38:50.824Z,86.78
2024-04-08T03:41:18.680Z,86.80
2024-04-08T03:43:48.524Z,86.94
2024-04-08T03:46:16.240Z,86.88
2024-04-08T03:48:44.450Z,86.81
2024-04-08T03:51:13.319Z,86.89
2024-04-08T03:53:41.293Z,86.98
2024-04-08T03:56:13.526Z,86.94
2024-04-08T03:58:42.319Z,87.13
2024-04-08T04:01:12.939Z,87.22
2024-04-08T04:03:40.743Z,87.07
2024-04-08T04:06:09.339Z,87.04
2024-04-08T04:08:37.304Z,87.16
2024-04-08T04:11:07.009Z,87.22
2024-04-08T04:13:35.232Z,87.23
2024-04-08T04:16:07.080Z,87.17
2024-04-08T04:18:34.950Z,87.17
2024-04-08T04:21:04.084Z,87.26
2024-04-08T04:23:31.865Z,87.19
2024-04-08T04:26:00.678Z,87.13
2024-04-08T04:28:28.979Z,87.14
2024-04-08T04:31:00.862Z,87.12
2024-04-08T04:33:30.042Z,87.12
2024-04-08T04:35:59.608Z,86.99
2024-04-08T04:38:27.839Z,86.95
2024-04-08T04:41:06.844Z,86.89
2024-04-08T04:43:35.154Z,86.92
2024-04-08T04:46:04.350Z,86.97
2024-04-08T04:48:32.846Z,86.90
2024-04-08T04:51:00.635Z,86.80
2024-04-08T04:53:28.397Z,86.83
2024-04-08T04:55:56.292Z,86.82
2024-04-08T04:58:24.021Z,86.85
2024-04-08T05:00:52.116Z,86.67
2024-04-08T05:03:20.867Z,86.58
2024-04-08T05:05:56.788Z,86.60
2024-04-08T05:08:24.920Z,86.68
2024-04-08T05:10:53.137Z,86.65
2024-04-08T05:13:21.207Z,86.58
2024-04-08T05:15:59.973Z,86.65
2024-04-08T05:18:29.173Z,86.47
2024-04-08T05:20:57.963Z,86.47
2024-04-08T05:23:29.349Z,86.41
2024-04-08T05:25:57.149Z,86.34
2024-04-08T05:28:25.214Z,86.13
2024-04-08T05:30:53.538Z,86.30
2024-04-08T05:33:21.542Z,86.16
2024-04-08T05:35:49.373Z,86.12
2024-04-08T05:38:17.186Z,86.03
2024-04-08T05:40:44.942Z,85.87
2024-04-08T05:43:16.692Z,85.78
2024-04-08T05:45:44.609Z,85.80
2024-04-08T05:48:12.945Z,85.77
2024-04-08T05:50:40.831Z,85.67
2024-04-08T05:53:08.724Z,85.76
2024-04-08T05:55:36.575Z,85.57
2024-04-08T05:58:04.837Z,85.45
2024-04-08T06:00:35.107Z,85.42
2024-04-08T06:03:03.637Z,85.36
2024-04-08T06:05:32.595Z,85.27
2024-04-08T06:08:00.350Z,85.22
2024-04-08T06:10:32.166Z,85.03
2024-04-08T06:13:00.744Z,84.85
2024-04-08T06:15:29.682Z,84.55
2024-04-08T06:17:57.764Z,84.32
2024-04-08T06:20:25.721Z,84.31
2024-04-08T06:22:53.479Z,84.39
2024-04-08T06:25:21.426Z,84.16
2024-04-08T06:27:49.155Z,83.84
2024-04-08T06:30:17.159Z,83.84
2024-04-08T06:32:50.027Z,83.65
2024-04-08T06:35:18.420Z,83.46
2024-04-08T06:37:46.400Z,83.29
2024-04-08T06:40:14.423Z,83.43
2024-04-08T06:42:42.190Z,83.21
2024-04-08T06:45:22.889Z,83.43
2024-04-08T06:48:10.682Z,83.07
2024-04-08T06:50:38.591Z,82.23
2024-04-08T06:53:06.321Z,81.22
2024-04-08T06:55:34.593Z,81.12
2024-04-08T06:58:13.088Z,81.26
2024-04-08T07:00:42.389Z,80.44
2024-04-08T07:03:10.821Z,80.84
2024-04-08T07:05:39.181Z,79.72
2024-04-08T07:08:07.222Z,79.87
2024-04-08T07:10:41.495Z,79.33
2024-04-08T07:13:25.782Z,78.87
2024-04-08T07:15:56.577Z,78.12
2024-04-08T07:18:27.383Z,77.00
2024-04-08T07:21:03.552Z,77.57
2024-04-08T07:23:31.842Z,76.41
2024-04-08T07:26:02.460Z,77.03
2024-04-08T07:28:30.296Z,75.40
2024-04-08T07:30:58.235Z,76.01
2024-04-08T07:33:25.961Z,75.08
2024-04-08T07:35:53.826Z,74.99
2024-04-08T07:38:21.707Z,74.66
2024-04-08T07:40:49.464Z,74.49
2024-04-08T07:43:17.234Z,72.86
2024-04-08T07:45:46.845Z,72.78
2024-04-08T07:48:15.467Z,72.74
2024-04-08T07:50:43.281Z,72.42
2024-04-08T07:53:11.020Z,72.13
2024-04-08T07:55:38.731Z,71.38
2024-04-08T07:58:06.469Z,71.23
2024-04-08T08:00:35.235Z,70.91
2024-04-08T08:03:03.555Z,70.49
2024-04-08T08:05:32.315Z,69.99
2024-04-08T08:08:03.187Z,69.96
2024-04-08T08:10:30.956Z,69.65
2024-04-08T08:12:58.771Z,68.57
2024-04-08T08:15:27.682Z,68.71
2024-04-08T08:17:55.642Z,68.65
2024-04-08T08:20:23.616Z,68.33
2024-04-08T08:23:15.701Z,67.40
2024-04-08T08:25:43.629Z,67.84
2024-04-08T08:28:11.408Z,67.55
2024-04-08T08:30:39.441Z,66.85
2024-04-08T08:33:07.867Z,66.31
2024-04-08T08:35:35.701Z,66.65
2024-04-08T08:38:03.590Z,66.07
2024-04-08T08:40:33.350Z,64.93
2024-04-08T08:43:01.130Z,64.61
2024-04-08T08:45:29.092Z,65.59
2024-04-08T08:47:56.937Z,64.47
2024-04-08T08:50:27.130Z,64.40
2024-04-08T08:52:54.900Z,63.17
2024-04-08T08:55:25.705Z,63.63
2024-04-08T08:57:54.747Z,63.41
2024-04-08T09:00:23.293Z,63.15
2024-04-08T09:02:52.538Z,61.98
2024-04-08T09:05:20.296Z,62.43
2024-04-08T09:07:48.072Z,62.50
2024-04-08T09:10:15.826Z,62.96
2024-04-08T09:12:44.133Z,62.74
2024-04-08T09:15:13.447Z,61.96
2024-04-08T09:17:42.753Z,62.09
2024-04-08T09:20:12.407Z,61.65
2024-04-08T09:22:40.143Z,61.92
2024-04-08T09:25:13.544Z,61.39
2024-04-08T09:27:41.865Z,61.56
2024-04-08T09:30:10.120Z,60.53
2024-04-08T09:32:38.554Z,60.63
2024-04-08T09:35:09.110Z,60.68
2024-04-08T09:37:37.191Z,61.29
2024-04-08T09:40:06.538Z,60.98
2024-04-08T09:42:34.778Z,61.12
2024-04-08T09:45:04.446Z,60.19
2024-04-08T09:47:33.826Z,59.89
2024-04-08T09:50:05.368Z,60.08
2024-04-08T09:52:33.493Z,59.85
2024-04-08T09:55:01.276Z,59.88
2024-04-08T09:57:32.498Z,59.68
2024-04-08T10:00:03.508Z,59.41
2024-04-08T10:02:40.264Z,59.29
2024-04-08T10:05:08.250Z,59.21
2024-04-08T10:07:37.016Z,58.47
2024-04-08T10:10:05.740Z,58.98
2024-04-08T10:12:38.055Z,59.16
2024-04-08T10:15:16.501Z,59.58
2024-04-08T10:17:45.850Z,58.80
2024-04-08T10:20:16.897Z,58.27
2024-04-08T10:22:45.695Z,57.75
2024-04-08T10:25:38.830Z,57.69
2024-04-08T10:28:06.956Z,58.00
2024-04-08T10:30:37.100Z,58.26
2024-04-08T10:46:05.025Z,57.49
2024-04-08T10:48:41.341Z,57.24
2024-04-08T10:51:17.616Z,57.52
2024-04-08T10:53:45.543Z,56.86
2024-04-08T10:56:13.369Z,57.49
2024-04-08T10:58:41.038Z,57.48
2024-04-08T11:01:09.959Z,57.32
2024-04-08T11:03:38.797Z,57.23
2024-04-08T11:06:06.833Z,57.41
2024-04-08T11:08:34.675Z,56.95
2024-04-08T11:11:02.650Z,56.79
2024-04-08T11:13:30.773Z,56.96
2024-04-08T11:15:59.818Z,56.83
2024-04-08T11:18:27.744Z,56.73
2024-04-08T11:20:55.776Z,56.86
2024-04-08T11:23:24.279Z,56.91
2024-04-08T11:25:54.523Z,56.99
2024-04-08T11:28:28.113Z,56.71
2024-04-08T11:30:56.167Z,56.50
2024-04-08T11:33:24.100Z,56.11
2024-04-08T11:35:51.960Z,56.09
2024-04-08T11:38:30.352Z,56.86
2024-04-08T11:41:11.529Z,56.94
2024-04-08T11:43:42.282Z,56.81
2024-04-08T11:46:13.276Z,56.78
2024-04-08T11:48:42.464Z,56.41
2024-04-08T11:51:10.342Z,56.59
2024-04-08T11:53:38.144Z,55.99
2024-04-08T11:56:11.921Z,55.88
2024-04-08T11:58:41.572Z,56.27
2024-04-08T12:01:10.915Z,55.70
2024-04-08T12:03:38.779Z,55.74
2024-04-08T12:06:10.212Z,55.78
2024-04-08T12:08:38.058Z,55.71
2024-04-08T12:11:06.628Z,55.81
2024-04-08T12:13:34.449Z,54.46
2024-04-08T12:16:02.325Z,54.77
2024-04-08T12:18:30.283Z,54.50
2024-04-08T12:20:58.458Z,54.41
2024-04-08T12:23:26.367Z,54.10
2024-04-08T12:25:54.112Z,53.92
2024-04-08T12:28:21.905Z,53.38
2024-04-08T12:30:49.752Z,53.59
2024-04-08T12:33:20.112Z,52.88
2024-04-08T12:35:48.302Z,53.42
2024-04-08T12:38:16.103Z,53.86
2024-04-08T12:40:48.263Z,54.04
2024-04-08T12:43:15.968Z,52.75
2024-04-08T12:45:44.436Z,52.13
2024-04-08T12:48:14.674Z,52.67
2024-04-08T12:50:46.502Z,52.24
2024-04-08T12:53:16.713Z,52.50
2024-04-08T12:55:53.309Z,52.37
2024-04-08T12:58:23.741Z,51.92
2024-04-08T13:00:52.419Z,52.19
2024-04-08T13:03:20.556Z,52.27
2024-04-08T13:05:53.271Z,52.75
2024-04-08T13:08:21.168Z,52.50
2024-04-08T13:10:48.905Z,52.30
2024-04-08T13:13:16.705Z,51.57
2024-04-08T13:15:44.590Z,51.34
2024-04-08T13:18:12.593Z,50.93
2024-04-08T13:20:40.464Z,50.30
2024-04-08T13:23:08.222Z,50.50
2024-04-08T13:25:40.145Z,50.67
2024-04-08T13:28:10.299Z,49.50
2024-04-08T13:30:38.452Z,49.66
2024-04-08T13:33:06.696Z,49.47
2024-04-08T13:35:34.592Z,49.32
2024-04-08T13:38:02.537Z,48.84
2024-04-08T13:40:30.251Z,48.61
2024-04-08T13:42:57.988Z,47.83
2024-04-08T13:45:26.054Z,48.68
2024-04-08T13:47:56.090Z,48.76
2024-04-08T13:50:24.602Z,48.53
2024-04-08T13:52:53.647Z,48.24
2024-04-08T13:55:27.256Z,48.60
2024-04-08T13:57:58.308Z,48.20
2024-04-08T14:00:27.477Z,48.08
2024-04-08T14:03:03.074Z,48.58
2024-04-08T14:05:32.149Z,48.71
2024-04-08T14:08:22.913Z,48.52
2024-04-08T14:10:51.635Z,48.76
2024-04-08T14:13:19.494Z,48.45
2024-04-08T14:15:47.584Z,48.17
2024-04-08T14:18:15.572Z,48.38
2024-04-08T14:20:43.690Z,48.80
2024-04-08T14:23:11.430Z,49.36
2024-04-08T14:25:39.195Z,49.45
2024-04-08T14:28:08.756Z,49.68
2024-04-08T14:30:51.165Z,49.92
2024-04-08T14:33:24.959Z,49.81
2024-04-08T14:35:54.459Z,50.01
2024-04-08T14:38:46.580Z,50.17
2024-04-08T14:41:10.241Z,50.44
2024-04-08T14:43:44.072Z,50.22
2024-04-08T14:46:19.164Z,49.94
2024-04-08T14:48:47.298Z,49.65
2024-04-08T14:51:15.878Z,49.60
2024-04-08T14:53:45.999Z,49.74
2024-04-08T14:56:14.815Z,50.02
2024-04-08T14:58:45.867Z,49.91
2024-04-08T15:01:14.965Z,49.85
2024-04-08T15:03:42.734Z,50.16
2024-04-08T15:06:10.756Z,50.74
2024-04-08T15:08:38.520Z,50.92
2024-04-08T15:11:08.779Z,51.01
2024-04-08T15:13:36.738Z,51.34
2024-04-08T15:16:04.746Z,51.55
2024-04-08T15:18:33.371Z,51.77
2024-04-08T15:21:01.249Z,51.85
2024-04-08T15:23:31.796Z,51.47
2024-04-08T15:25:59.915Z,51.41
2024-04-08T15:28:28.067Z,51.51
2024-04-08T15:31:00.248Z,51.48
2024-04-08T15:33:28.416Z,51.44
2024-04-08T15:36:06.022Z,51.58
2024-04-08T15:38:33.795Z,51.73
2024-04-08T15:41:01.755Z,51.52
2024-04-08T15:43:30.502Z,51.37
2024-04-08T15:46:00.041Z,51.21
2024-04-08T15:48:29.870Z,50.98
2024-04-08T15:51:03.553Z,50.87
2024-04-08T15:53:31.540Z,50.57
2024-04-08T15:55:59.772Z,50.42
2024-04-08T15:58:28.466Z,50.25
2024-04-08T16:00:57.542Z,50.11
2024-04-08T16:03:25.492Z,50.38
2024-04-08T16:05:53.681Z,50.38
2024-04-08T16:08:21.662Z,50.78
2024-04-08T16:10:49.741Z,50.81
2024-04-08T16:13:19.232Z,51.01
2024-04-08T16:15:50.815Z,51.27
2024-04-08T16:18:23.485Z,51.25
2024-04-08T16:20:58.944Z,51.53
2024-04-08T16:26:02.500Z,51.57
2024-04-08T16:28:30.655Z,51.47
2024-04-08T16:31:03.681Z,51.36
2024-04-08T16:33:32.864Z,51.18
2024-04-08T16:36:02.205Z,50.61
2024-04-08T16:38:30.084Z,50.63
2024-04-08T16:40:58.488Z,50.45
2024-04-08T16:43:26.368Z,50.46
2024-04-08T16:45:58.162Z,50.37
2024-04-08T16:48:28.866Z,50.20
2024-04-08T16:50:59.367Z,49.73
2024-04-08T16:53:28.615Z,49.61
2024-04-08T16:55:58.018Z,49.52
2024-04-08T16:58:39.696Z,49.48
2024-04-08T17:01:10.233Z,49.49
2024-04-08T17:03:38.291Z,49.38
2024-04-08T17:06:16.690Z,49.40
2024-04-08T17:08:50.580Z,49.56
2024-04-08T17:11:20.865Z,49.38
2024-04-08T17:13:48.714Z,49.26
2024-04-08T17:16:16.385Z,49.21
2024-04-08T17:18:44.314Z,49.05
2024-04-08T17:21:12.176Z,49.03
2024-04-08T17:23:39.977Z,48.92
2024-04-08T17:26:07.808Z,48.85
2024-04-08T17:28:36.537Z,48.96
2024-04-08T17:31:05.593Z,48.92
2024-04-08T17:33:34.493Z,48.83
2024-04-08T17:36:07.057Z,48.75
2024-04-08T17:38:41.609Z,48.85
2024-04-08T17:41:11.031Z,48.82
2024-04-08T17:43:43.492Z,48.89
2024-04-08T17:46:11.518Z,48.90
2024-04-08T17:48:39.808Z,48.83
2024-04-08T17:51:08.803Z,49.04
2024-04-08T17:53:37.110Z,49.05
2024-04-08T17:56:14.699Z,49.05
2024-04-08T17:58:44.879Z,49.26
2024-04-08T18:01:19.278Z,49.21
2024-04-08T18:03:50.124Z,49.33
2024-04-08T18:06:23.144Z,49.46
2024-04-08T18:08:52.807Z,49.70
2024-04-08T18:11:26.072Z,49.80
2024-04-08T18:13:54.364Z,49.75
2024-04-08T18:16:22.431Z,50.06
2024-04-08T18:18:53.116Z,50.16
2024-04-08T18:21:23.448Z,49.96
2024-04-08T18:23:51.465Z,49.99
2024-04-08T18:26:21.346Z,50.28
2024-04-08T18:28:51.426Z,50.36
2024-04-08T18:31:21.075Z,50.39
2024-04-08T18:33:51.472Z,50.62
2024-04-08T18:36:20.192Z,50.67
2024-04-08T18:38:51.834Z,50.93
2024-04-08T18:41:20.456Z,51.21
2024-04-08T18:43:49.432Z,51.29
2024-04-08T18:46:21.976Z,51.32
2024-04-08T18:48:50.443Z,51.43
2024-04-08T18:51:18.781Z,51.61
2024-04-08T18:53:47.031Z,51.40
2024-04-08T18:56:16.459Z,51.68
2024-04-08T18:58:44.226Z,51.62
2024-04-08T19:01:21.568Z,51.55
2024-04-08T19:03:54.260Z,51.55
2024-04-08T19:06:22.251Z,51.60
2024-04-08T19:08:50.274Z,51.74
2024-04-08T19:11:18.916Z,51.82
2024-04-08T19:13:49.758Z,51.87
2024-04-08T19:16:17.535Z,51.82
2024-04-08T19:18:48.168Z,51.70
2024-04-08T19:21:16.517Z,51.91
2024-04-08T19:23:45.597Z,52.11
2024-04-08T19:26:14.879Z,52.17
2024-04-08T19:28:43.666Z,52.17
2024-04-08T19:31:13.835Z,52.42
2024-04-08T19:33:45.293Z,52.49
2024-04-08T19:36:14.104Z,52.52
2024-04-08T19:38:41.869Z,52.39
2024-04-08T19:41:11.023Z,52.46
2024-04-08T19:43:39.434Z,52.46
2024-04-08T19:46:12.996Z,52.75
2024-04-08T19:48:44.450Z,52.99
2024-04-08T19:51:17.378Z,53.02
2024-04-08T19:53:48.204Z,53.02
2024-04-08T19:56:18.431Z,53.09
2024-04-08T19:58:46.603Z,53.05
2024-04-08T20:01:14.387Z,53.07
2024-04-08T20:03:43.043Z,53.29
2024-04-08T20:06:11.437Z,53.25
2024-04-08T20:08:40.583Z,53.24
2024-04-08T20:11:12.690Z,53.29
2024-04-08T20:13:42.143Z,53.38
2024-04-08T20:16:21.646Z,53.37
2024-04-08T20:18:51.058Z,53.29
2024-04-08T20:21:26.552Z,53.42
2024-04-08T20:23:54.404Z,53.58
2024-04-08T20:26:22.337Z,53.68
2024-04-08T20:28:50.098Z,53.72
2024-04-08T20:31:17.860Z,54.00
2024-04-08T20:33:45.834Z,54.16
2024-04-08T20:36:15.053Z,54.26
2024-04-08T20:38:43.063Z,54.34
2024-04-08T20:41:14.095Z,54.47
2024-04-08T20:43:42.182Z,54.76
2024-04-08T20:46:10.178Z,54.86
2024-04-08T20:48:38.719Z,54.99
2024-04-08T20:51:06.974Z,54.99
2024-04-08T20:53:35.219Z,55.13
2024-04-08T20:56:05.463Z,55.12
2024-04-08T20:58:34.092Z,55.17
2024-04-08T21:01:07.570Z,55.36
2024-04-08T21:03:36.917Z,55.33
2024-04-08T21:06:08.856Z,55.39
2024-04-08T21:13:15.619Z,55.62
2024-04-08T21:15:42.336Z,55.72
2024-04-08T21:18:09.184Z,55.72
2024-04-08T21:20:35.890Z,55.73
2024-04-08T21:23:04.343Z,55.77
2024-04-08T21:25:31.534Z,55.71
2024-04-08T21:27:58.205Z,55.63
2024-04-08T21:30:24.912Z,55.70
2024-04-08T21:32:51.925Z,55.83
2024-04-08T21:35:18.752Z,55.96
2024-04-08T21:37:45.700Z,56.02
2024-04-08T21:40:12.378Z,55.99
2024-04-08T21:42:39.539Z,56.14
2024-04-08T21:45:06.566Z,56.16
2024-04-08T21:47:34.044Z,56.12
2024-04-08T21:50:00.773Z,56.27
2024-04-08T21:52:27.398Z,56.21
2024-04-08T21:54:54.040Z,56.20
2024-04-08T21:57:20.782Z,56.24
2024-04-08T21:59:47.701Z,56.31
2024-04-08T22:02:14.293Z,56.32
2024-04-08T22:07:26.640Z,56.15
2024-04-08T22:09:54.267Z,56.13
2024-04-08T22:12:22.523Z,56.19
2024-04-08T22:14:50.294Z,56.20
2024-04-08T22:17:24.408Z,56.18
2024-04-08T22:19:52.689Z,56.18
2024-04-08T22:22:20.379Z,56.19
2024-04-08T22:24:48.173Z,56.23
2024-04-08T22:27:15.989Z,56.31
2024-04-08T22:29:43.745Z,56.36
2024-04-08T22:32:13.655Z,56.46
2024-04-08T22:34:41.519Z,56.51
2024-04-08T22:37:09.593Z,56.67
2024-04-08T22:39:40.401Z,56.83
2024-04-08T22:42:09.607Z,56.97
2024-04-08T22:44:37.668Z,57.07
2024-04-08T22:47:05.360Z,57.20
2024-04-08T22:49:33.167Z,57.38
2024-04-08T22:52:00.864Z,57.46
2024-04-08T22:54:28.652Z,57.60
2024-04-08T22:56:56.475Z,57.65
2024-04-08T22:59:24.333Z,57.74
2024-04-08T23:01:52.130Z,57.90
2024-04-08T23:04:21.656Z,58.01
2024-04-08T23:06:49.497Z,58.12
2024-04-08T23:09:17.307Z,58.21
2024-04-08T23:11:45.392Z,58.33
2024-04-08T23:14:13.302Z,58.37
2024-04-08T23:16:41.107Z,58.36
2024-04-08T23:19:09.055Z,58.54
2024-04-08T23:21:36.975Z,58.65
2024-04-08T23:24:04.889Z,58.81
2024-04-08T23:26:32.668Z,58.81
2024-04-08T23:29:00.405Z,58.82
2024-04-08T23:31:28.237Z,58.83
2024-04-08T23:33:56.104Z,58.91
2024-04-08T23:36:23.872Z,59.07
2024-04-08T23:38:51.557Z,59.14
2024-04-08T23:41:20.312Z,59.37
2024-04-08T23:43:47.933Z,59.32
2024-04-08T23:46:15.958Z,59.43
2024-04-08T23:48:43.736Z,59.55
2024-04-08T23:51:11.580Z,59.60
2024-04-08T23:53:39.477Z,59.54
2024-04-08T23:56:07.247Z,59.65
2024-04-08T23:58:34.892Z,59.76
